createdAt,value
2023-01-10T00:02:34.260Z,-6.82
2023-01-10T00:05:39.566Z,-6.73
2023-01-10T00:08:45.211Z,-6.80
2023-01-10T00:12:08.639Z,-6.80
2023-01-10T00:15:13.973Z,-6.73
2023-01-10T00:18:19.422Z,-6.83
2023-01-10T00:21:24.599Z,-6.80
2023-01-10T00:24:31.050Z,-5.89
2023-01-10T00:27:37.589Z,-5.84
2023-01-10T00:30:37.597Z,-6.01
2023-01-10T00:33:44.172Z,-5.85
2023-01-10T00:36:52.246Z,-5.94
2023-01-10T00:39:57.937Z,-6.14
2023-01-10T00:43:21.793Z,-6.22
2023-01-10T00:46:27.096Z,-6.08
2023-01-10T00:49:33.308Z,-6.17
2023-01-10T00:52:40.229Z,-6.27
2023-01-10T00:55:44.619Z,-6.17
2023-01-10T00:58:51.365Z,-6.20
2023-01-10T01:01:56.732Z,-6.19
2023-01-10T01:05:02.213Z,-6.15
2023-01-10T01:08:08.259Z,-6.38
2023-01-10T01:11:14.172Z,-6.52
2023-01-10T01:14:20.817Z,-6.18
2023-01-10T01:17:26.118Z,-6.03
2023-01-10T01:20:31.869Z,-6.17
2023-01-10T01:23:37.530Z,-6.17
2023-01-10T01:26:43.106Z,-6.18
2023-01-10T01:29:48.308Z,-6.23
2023-01-10T01:32:54.104Z,-6.39
2023-01-10T01:36:00.533Z,-6.21
2023-01-10T01:39:06.927Z,-6.14
2023-01-10T01:42:13.218Z,-6.19
2023-01-10T01:45:30.699Z,-6.24
2023-01-10T01:48:48.999Z,-6.10
2023-01-10T01:51:55.451Z,-6.22
2023-01-10T01:55:00.909Z,-6.27
2023-01-10T01:58:06.644Z,-6.32
2023-01-10T02:01:11.673Z,-6.45
2023-01-10T02:04:22.097Z,-6.63
2023-01-10T02:07:27.491Z,-6.67
2023-01-10T02:10:38.426Z,-6.72
2023-01-10T02:13:44.300Z,-6.77
2023-01-10T02:16:50.099Z,-6.87
2023-01-10T02:20:06.617Z,-6.81
2023-01-10T02:23:51.059Z,-6.69
2023-01-10T02:27:32.416Z,-6.69
2023-01-10T02:30:54.199Z,-6.81
2023-01-10T02:34:18.067Z,-6.90
2023-01-10T02:37:33.974Z,-6.85
2023-01-10T02:41:04.949Z,-6.94
2023-01-10T02:44:37.202Z,-6.95
2023-01-10T02:47:43.363Z,-6.73
2023-01-10T02:51:05.943Z,-6.65
2023-01-10T02:54:33.988Z,-6.57
2023-01-10T02:57:56.844Z,-6.49
2023-01-10T03:01:10.095Z,-6.41
2023-01-10T03:04:36.059Z,-6.60
2023-01-10T03:07:59.592Z,-6.71
2023-01-10T03:11:14.994Z,-6.83
2023-01-10T03:14:20.817Z,-6.84
2023-01-10T03:17:26.551Z,-6.91
2023-01-10T03:20:33.876Z,-6.99
2023-01-10T03:23:39.341Z,-6.99
2023-01-10T03:27:32.744Z,-6.98
2023-01-10T03:31:01.558Z,-7.10
2023-01-10T03:34:07.334Z,-7.10
2023-01-10T03:37:24.501Z,-7.08
2023-01-10T03:40:47.171Z,-7.14
2023-01-10T03:44:29.521Z,-7.11
2023-01-10T03:47:55.793Z,-7.15
2023-01-10T03:51:01.884Z,-7.05
2023-01-10T03:54:07.986Z,-7.00
2023-01-10T03:57:15.124Z,-7.06
2023-01-10T04:00:21.667Z,-7.07
2023-01-10T04:03:26.445Z,-7.15
2023-01-10T04:06:31.599Z,-7.12
2023-01-10T04:09:36.998Z,-7.18
2023-01-10T04:12:35.680Z,-7.13
2023-01-10T04:15:34.742Z,-7.09
2023-01-10T04:18:40.694Z,-6.83
2023-01-10T04:21:46.593Z,-6.74
2023-01-10T04:24:51.391Z,-6.91
2023-01-10T04:27:57.460Z,-6.80
2023-01-10T04:31:02.908Z,-6.90
2023-01-10T04:34:09.791Z,-6.72
2023-01-10T04:37:15.402Z,-6.88
2023-01-10T04:40:24.799Z,-6.66
2023-01-10T04:43:30.417Z,-6.69
2023-01-10T04:46:36.616Z,-6.64
2023-01-10T04:49:36.286Z,-6.57
2023-01-10T04:52:42.737Z,-6.59
2023-01-10T04:55:48.922Z,-6.35
2023-01-10T04:58:43.537Z,-6.06
2023-01-10T05:01:49.781Z,-6.01
2023-01-10T05:04:54.796Z,-5.95
2023-01-10T05:08:02.496Z,-5.77
2023-01-10T05:11:09.020Z,-5.87
2023-01-10T05:14:14.007Z,-5.82
2023-01-10T05:17:19.979Z,-6.35
2023-01-10T05:20:29.795Z,-6.22
2023-01-10T05:23:35.813Z,-6.22
2023-01-10T05:26:42.226Z,-6.35
2023-01-10T05:29:48.279Z,-6.19
2023-01-10T05:32:53.917Z,-6.15
2023-01-10T05:35:59.634Z,-6.28
2023-01-10T05:39:05.193Z,-6.41
2023-01-10T05:42:12.107Z,-6.23
2023-01-10T05:45:17.960Z,-6.23
2023-01-10T05:48:23.603Z,-6.20
2023-01-10T05:51:28.987Z,-6.14
2023-01-10T05:54:36.592Z,-5.84
2023-01-10T05:57:42.161Z,-5.96
2023-01-10T06:00:49.619Z,-5.91
2023-01-10T06:03:48.497Z,-5.98
2023-01-10T06:06:54.327Z,-5.83
2023-01-10T06:09:59.982Z,-5.71
2023-01-10T06:13:06.198Z,-5.72
2023-01-10T06:16:11.811Z,-5.87
2023-01-10T06:19:18.193Z,-5.81
2023-01-10T06:22:17.233Z,-5.82
2023-01-10T06:25:25.314Z,-5.81
2023-01-10T06:28:31.401Z,-5.73
2023-01-10T06:31:38.342Z,-5.75
2023-01-10T06:34:44.623Z,-5.73
2023-01-10T06:37:51.002Z,-5.62
2023-01-10T06:40:56.760Z,-5.66
2023-01-10T06:44:03.696Z,-5.63
2023-01-10T06:47:09.012Z,-5.53
2023-01-10T06:50:14.487Z,-5.49
2023-01-10T06:53:12.446Z,-5.49
2023-01-10T06:56:18.376Z,-5.37
2023-01-10T06:59:24.267Z,-5.38
2023-01-10T07:02:29.439Z,-5.40
2023-01-10T07:05:36.613Z,-5.42
2023-01-10T07:08:42.158Z,-5.30
2023-01-10T07:11:48.719Z,-5.28
2023-01-10T07:14:54.162Z,-5.17
2023-01-10T07:18:00.817Z,-5.12
2023-01-10T07:21:06.803Z,-4.93
2023-01-10T07:24:14.578Z,-4.87
2023-01-10T07:27:19.887Z,-4.75
2023-01-10T07:30:26.861Z,-4.62
2023-01-10T07:33:35.660Z,-4.56
2023-01-10T07:36:43.459Z,-4.33
2023-01-10T07:39:48.704Z,-4.16
2023-01-10T07:42:54.775Z,-4.14
2023-01-10T07:46:00.838Z,-3.98
2023-01-10T07:49:06.888Z,-3.86
2023-01-10T07:52:15.156Z,-3.81
2023-01-10T07:55:21.043Z,-3.59
2023-01-10T07:58:28.077Z,-3.65
2023-01-10T08:01:33.023Z,-3.53
2023-01-10T08:04:38.664Z,-3.45
2023-01-10T08:07:45.341Z,-3.46
2023-01-10T08:10:50.800Z,-3.40
2023-01-10T08:13:55.655Z,-3.41
2023-01-10T08:17:00.304Z,-3.36
2023-01-10T08:20:08.182Z,-3.11
2023-01-10T08:23:14.061Z,-3.10
2023-01-10T08:26:19.962Z,-3.04
2023-01-10T08:29:25.730Z,-3.03
2023-01-10T08:32:31.856Z,-2.98
2023-01-10T08:35:38.213Z,-3.00
2023-01-10T08:38:43.767Z,-2.84
2023-01-10T08:41:49.322Z,-2.64
2023-01-10T08:44:55.489Z,-2.59
2023-01-10T08:48:01.257Z,-2.63
2023-01-10T08:51:06.445Z,-2.58
2023-01-10T08:54:12.154Z,-2.52
2023-01-10T08:57:17.628Z,-2.39
2023-01-10T09:00:25.621Z,-2.29
2023-01-10T09:03:30.722Z,-2.23
2023-01-10T09:06:37.077Z,-2.18
2023-01-10T09:09:42.310Z,-2.22
2023-01-10T09:13:05.459Z,-2.23
2023-01-10T09:16:10.674Z,-2.22
2023-01-10T09:19:16.173Z,-2.08
2023-01-10T09:22:21.330Z,-2.01
2023-01-10T09:25:27.307Z,-2.01
2023-01-10T09:28:33.454Z,-2.03
2023-01-10T09:31:38.903Z,-1.94
2023-01-10T09:34:44.641Z,-1.79
2023-01-10T09:37:50.586Z,-1.76
2023-01-10T09:41:16.953Z,-1.64
2023-01-10T09:44:35.766Z,-1.70
2023-01-10T09:48:04.554Z,-1.63
2023-01-10T09:52:00.246Z,-1.58
2023-01-10T09:55:08.235Z,-1.52
2023-01-10T09:58:18.119Z,-1.65
2023-01-10T10:01:30.690Z,-1.81
2023-01-10T10:04:53.296Z,-1.76
2023-01-10T10:08:11.885Z,-1.74
2023-01-10T10:11:48.854Z,-1.76
2023-01-10T10:15:22.290Z,-1.68
2023-01-10T10:18:45.110Z,-1.69
2023-01-10T10:22:24.648Z,-1.33
2023-01-10T10:26:13.899Z,-1.36
2023-01-10T10:30:13.114Z,-1.32
2023-01-10T10:33:28.049Z,-1.50
2023-01-10T10:36:57.749Z,-1.41
2023-01-10T10:40:14.394Z,-1.37
2023-01-10T10:43:32.622Z,-1.26
2023-01-10T10:46:38.264Z,-1.28
2023-01-10T10:49:42.969Z,-1.25
2023-01-10T10:52:34.624Z,-1.22
2023-01-10T10:55:30.565Z,-1.19
2023-01-10T10:58:39.235Z,-1.10
2023-01-10T11:02:04.639Z,-0.99
2023-01-10T11:05:16.781Z,-1.00
2023-01-10T11:08:27.130Z,-0.99
2023-01-10T11:11:51.681Z,-0.94
2023-01-10T11:15:04.189Z,-1.00
2023-01-10T11:18:34.014Z,-0.99
2023-01-10T11:21:43.079Z,-0.92
2023-01-10T11:24:54.240Z,-0.86
2023-01-10T11:28:11.129Z,-0.97
2023-01-10T11:31:17.275Z,-1.08
2023-01-10T11:34:42.344Z,-1.13
2023-01-10T11:37:53.929Z,-1.13
2023-01-10T11:41:20.429Z,-1.12
2023-01-10T11:44:38.415Z,-1.10
2023-01-10T11:47:45.713Z,-1.14
2023-01-10T11:50:54.824Z,-1.07
2023-01-10T11:54:00.750Z,-0.96
2023-01-10T11:57:25.783Z,-0.95
2023-01-10T12:00:32.251Z,-0.86
2023-01-10T12:03:49.827Z,-0.83
2023-01-10T12:07:00.440Z,-0.83
2023-01-10T12:10:14.128Z,-0.80
2023-01-10T12:13:30.122Z,-0.71
2023-01-10T12:16:49.447Z,-0.77
2023-01-10T12:19:48.507Z,-0.81
2023-01-10T12:26:15.155Z,-0.77
2023-01-10T12:29:30.675Z,-0.72
2023-01-10T12:32:40.755Z,-0.70
2023-01-10T12:36:02.349Z,-0.67
2023-01-10T12:39:32.087Z,-0.58
2023-01-10T12:43:09.226Z,-0.61
2023-01-10T12:47:04.733Z,-0.68
2023-01-10T12:49:58.266Z,-0.47
2023-01-10T12:53:27.780Z,-0.54
2023-01-10T12:56:34.777Z,-0.54
2023-01-10T12:59:56.339Z,-0.69
2023-01-10T13:03:02.021Z,-0.77
2023-01-10T13:06:07.988Z,-0.93
2023-01-10T13:09:18.295Z,-0.96
2023-01-10T13:12:48.605Z,-0.88
2023-01-10T13:16:03.388Z,-0.97
2023-01-10T13:19:28.277Z,-0.90
2023-01-10T13:22:37.435Z,-0.96
2023-01-10T13:25:52.264Z,-1.06
2023-01-10T13:29:14.663Z,-1.09
2023-01-10T13:32:36.322Z,-1.07
2023-01-10T13:35:42.239Z,-1.25
2023-01-10T13:39:15.953Z,-1.34
2023-01-10T13:42:42.916Z,-1.29
2023-01-10T13:45:49.822Z,-1.32
2023-01-10T13:48:55.246Z,-1.40
2023-01-10T13:52:36.841Z,-1.73
2023-01-10T13:55:49.828Z,-1.86
2023-01-10T13:58:58.458Z,-1.96
2023-01-10T14:02:25.966Z,-2.02
2023-01-10T14:05:31.617Z,-2.03
2023-01-10T14:08:37.118Z,-2.14
2023-01-10T14:12:00.320Z,-2.19
2023-01-10T14:15:12.915Z,-2.25
2023-01-10T14:18:37.963Z,-2.50
2023-01-10T14:21:45.703Z,-2.39
2023-01-10T14:24:59.491Z,-2.49
2023-01-10T14:28:06.914Z,-2.58
2023-01-10T14:31:35.859Z,-2.55
2023-01-10T14:34:45.342Z,-2.69
2023-01-10T14:38:00.016Z,-2.64
2023-01-10T14:41:09.307Z,-2.71
2023-01-10T14:44:42.101Z,-2.71
2023-01-10T14:47:49.674Z,-2.85
2023-01-10T14:50:55.811Z,-3.01
2023-01-10T14:54:02.093Z,-3.25
2023-01-10T14:57:07.993Z,-3.31
2023-01-10T15:00:30.206Z,-3.49
2023-01-10T15:03:31.788Z,-3.53
2023-01-10T15:06:38.057Z,-3.54
2023-01-10T15:09:45.591Z,-3.63
2023-01-10T15:12:52.228Z,-3.83
2023-01-10T15:15:58.322Z,-4.05
2023-01-10T15:19:05.113Z,-4.15
2023-01-10T15:22:11.533Z,-4.17
2023-01-10T15:25:23.125Z,-4.28
2023-01-10T15:28:30.719Z,-4.23
2023-01-10T15:31:36.505Z,-4.33
2023-01-10T15:34:44.209Z,-4.65
2023-01-10T15:37:53.486Z,-4.81
2023-01-10T15:40:58.925Z,-4.90
2023-01-10T15:44:03.894Z,-4.85
2023-01-10T15:47:12.167Z,-4.76
2023-01-10T15:50:46.233Z,-4.81
2023-01-10T15:54:29.268Z,-5.05
2023-01-10T15:57:45.412Z,-5.07
2023-01-10T16:00:51.231Z,-5.15
2023-01-10T16:04:08.728Z,-5.33
2023-01-10T16:07:27.597Z,-5.50
2023-01-10T16:10:43.208Z,-5.45
2023-01-10T16:13:48.714Z,-5.26
2023-01-10T16:16:54.347Z,-5.56
2023-01-10T16:20:01.476Z,-5.49
2023-01-10T16:23:08.676Z,-5.59
2023-01-10T16:26:17.381Z,-5.67
2023-01-10T16:29:24.180Z,-5.83
2023-01-10T16:32:23.914Z,-5.70
2023-01-10T16:35:30.797Z,-6.09
2023-01-10T16:38:37.703Z,-6.13
2023-01-10T16:42:01.807Z,-6.14
2023-01-10T16:45:07.760Z,-6.13
2023-01-10T16:48:12.938Z,-6.29
2023-01-10T16:51:41.336Z,-6.42
2023-01-10T16:54:47.094Z,-6.38
2023-01-10T16:57:54.891Z,-6.64
2023-01-10T17:01:05.748Z,-6.47
2023-01-10T17:04:12.610Z,-6.85
2023-01-10T17:07:18.282Z,-6.87
2023-01-10T17:10:24.240Z,-6.79
2023-01-10T17:13:31.688Z,-7.02
2023-01-10T17:16:38.330Z,-7.14
2023-01-10T17:19:45.587Z,-7.08
2023-01-10T17:22:50.247Z,-7.25
2023-01-10T17:25:56.911Z,-7.50
2023-01-10T17:29:02.749Z,-7.53
2023-01-10T17:32:08.710Z,-7.22
2023-01-10T17:35:15.172Z,-7.38
2023-01-10T17:38:22.043Z,-7.14
2023-01-10T17:41:31.274Z,-7.50
2023-01-10T17:44:35.629Z,-7.30
2023-01-10T17:47:41.866Z,-7.81
2023-01-10T17:50:47.719Z,-7.92
2023-01-10T17:53:53.586Z,-7.81
2023-01-10T17:56:58.607Z,-7.38
2023-01-10T18:00:04.524Z,-7.90
2023-01-10T18:03:10.622Z,-7.19
2023-01-10T18:06:23.811Z,-7.22
2023-01-10T18:09:24.436Z,-7.32
2023-01-10T18:12:31.089Z,-7.41
2023-01-10T18:15:36.298Z,-7.55
2023-01-10T18:18:41.454Z,-7.67
2023-01-10T18:21:47.342Z,-7.58
2023-01-10T18:24:53.473Z,-7.68
2023-01-10T18:27:59.440Z,-7.90
2023-01-10T18:31:06.215Z,-7.87
2023-01-10T18:34:11.474Z,-7.93
2023-01-10T18:37:17.436Z,-7.98
2023-01-10T18:40:24.471Z,-8.13
2023-01-10T18:43:30.791Z,-8.26
2023-01-10T18:46:39.585Z,-8.47
2023-01-10T18:49:44.863Z,-8.04
2023-01-10T18:52:51.374Z,-8.38
2023-01-10T18:55:59.543Z,-8.30
2023-01-10T18:59:07.491Z,-8.27
2023-01-10T19:02:13.617Z,-8.22
2023-01-10T19:05:21.714Z,-8.17
2023-01-10T19:08:27.667Z,-8.17
2023-01-10T19:11:32.941Z,-8.39
2023-01-10T19:14:32.535Z,-8.15
2023-01-10T19:17:25.039Z,-8.34
2023-01-10T19:20:30.972Z,-8.28
2023-01-10T19:23:37.355Z,-8.14
2023-01-10T19:26:42.758Z,-7.99
2023-01-10T19:29:49.155Z,-7.74
2023-01-10T19:32:55.346Z,-8.21
2023-01-10T19:36:00.765Z,-7.88
2023-01-10T19:39:14.639Z,-8.09
2023-01-10T19:42:20.141Z,-8.27
2023-01-10T19:45:19.237Z,-8.39
2023-01-10T19:48:12.123Z,-8.40
2023-01-10T19:51:18.186Z,-8.35
2023-01-10T19:54:27.044Z,-8.33
2023-01-10T19:57:32.311Z,-8.16
2023-01-10T20:00:37.468Z,-8.18
2023-01-10T20:03:37.289Z,-8.36
2023-01-10T20:06:36.053Z,-8.04
2023-01-10T20:09:41.822Z,-8.02
2023-01-10T20:12:50.573Z,-8.32
2023-01-10T20:15:57.385Z,-8.46
2023-01-10T20:19:03.384Z,-8.43
2023-01-10T20:22:09.018Z,-8.51
2023-01-10T20:25:14.669Z,-8.37
2023-01-10T20:28:19.607Z,-8.54
2023-01-10T20:31:31.608Z,-8.34
2023-01-10T20:34:37.432Z,-8.43
2023-01-10T20:37:44.985Z,-8.52
2023-01-10T20:40:51.481Z,-8.45
2023-01-10T20:43:58.182Z,-8.58
2023-01-10T20:47:04.416Z,-8.63
2023-01-10T20:50:11.097Z,-8.71
2023-01-10T20:53:16.868Z,-8.93
2023-01-10T20:56:26.542Z,-8.70
2023-01-10T20:59:34.036Z,-8.90
2023-01-10T21:02:39.559Z,-8.87
2023-01-10T21:05:45.825Z,-8.77
2023-01-10T21:08:52.145Z,-8.98
2023-01-10T21:12:10.650Z,-8.77
2023-01-10T21:15:06.761Z,-8.62
2023-01-10T21:18:12.516Z,-8.43
2023-01-10T21:21:18.218Z,-8.39
2023-01-10T21:24:25.817Z,-8.47
2023-01-10T21:27:33.794Z,-8.50
2023-01-10T21:30:39.891Z,-8.79
2023-01-10T21:33:45.549Z,-8.57
2023-01-10T21:36:52.075Z,-8.54
2023-01-10T21:39:58.903Z,-8.67
2023-01-10T21:43:05.005Z,-8.66
2023-01-10T21:46:15.888Z,-8.81
2023-01-10T21:49:22.773Z,-8.77
2023-01-10T21:52:28.945Z,-8.76
2023-01-10T21:55:33.735Z,-8.71
2023-01-10T21:58:39.665Z,-8.69
2023-01-10T22:01:45.348Z,-8.63
2023-01-10T22:04:51.297Z,-8.68
2023-01-10T22:07:56.340Z,-8.65
2023-01-10T22:11:02.387Z,-8.72
2023-01-10T22:14:09.530Z,-8.72
2023-01-10T22:17:15.533Z,-8.77
2023-01-10T22:20:23.555Z,-8.85
2023-01-10T22:23:28.896Z,-8.91
2023-01-10T22:26:27.178Z,-8.67
2023-01-10T22:29:13.061Z,-8.68
2023-01-10T22:32:05.365Z,-8.88
2023-01-10T22:34:58.089Z,-9.04
2023-01-10T22:38:03.611Z,-8.97
2023-01-10T22:41:09.534Z,-8.92
2023-01-10T22:44:16.012Z,-8.86
2023-01-10T22:47:23.058Z,-8.95
2023-01-10T22:50:28.932Z,-8.88
2023-01-10T22:53:35.699Z,-8.98
2023-01-10T22:56:41.713Z,-9.18
2023-01-10T22:59:46.802Z,-9.03
2023-01-10T23:02:46.863Z,-9.10
2023-01-10T23:05:39.926Z,-9.07
2023-01-10T23:08:45.682Z,-9.07
2023-01-10T23:11:52.181Z,-9.09
2023-01-10T23:14:57.809Z,-8.85
2023-01-10T23:18:04.019Z,-8.84
2023-01-10T23:21:10.038Z,-9.07
2023-01-10T23:24:15.577Z,-8.99
2023-01-10T23:27:22.172Z,-9.01
2023-01-10T23:30:29.464Z,-9.00
2023-01-10T23:33:36.376Z,-8.98
2023-01-10T23:36:41.552Z,-9.17
2023-01-10T23:39:47.285Z,-9.18
2023-01-10T23:42:53.032Z,-9.06
2023-01-10T23:45:52.617Z,-9.16
2023-01-10T23:48:47.139Z,-9.01
2023-01-10T23:51:53.204Z,-9.15
2023-01-10T23:54:59.692Z,-8.91
2023-01-10T23:58:05.936Z,-8.87
